sensor_id;sensor_type;location;lat;lon;timestamp;P1;durP1;ratioP1;P2;durP2;ratioP2
66559;SDS011;53413;49.878;8.142;2023-07-31T00:01:25;4.57;;;1.60;;
66559;SDS011;53413;49.878;8.142;2023-07-31T00:03:50;5.60;;;1.60;;
66559;SDS011;53413;49.878;8.142;2023-07-31T00:06:15;6.87;;;1.83;;
66559;SDS011;53413;49.878;8.142;2023-07-31T00:08:41;5.30;;;1.70;;
66559;SDS011;53413;49.878;8.142;2023-07-31T00:11:06;5.95;;;1.60;;
66559;SDS011;53413;49.878;8.142;2023-07-31T00:13:31;5.53;;;1.50;;
66559;SDS011;53413;49.878;8.142;2023-07-31T00:15:57;6.17;;;1.60;;
66559;SDS011;53413;49.878;8.142;2023-07-31T00:18:22;5.13;;;1.70;;
66559;SDS011;53413;49.878;8.142;2023-07-31T00:20:47;5.23;;;1.83;;
66559;SDS011;53413;49.878;8.142;2023-07-31T00:23:13;7.77;;;1.70;;
66559;SDS011;53413;49.878;8.142;2023-07-31T00:25:38;6.57;;;1.80;;
66559;SDS011;53413;49.878;8.142;2023-07-31T00:28:04;5.15;;;1.80;;
66559;SDS011;53413;49.878;8.142;2023-07-31T00:30:29;6.33;;;1.67;;
66559;SDS011;53413;49.878;8.142;2023-07-31T00:32:55;5.47;;;1.80;;
66559;SDS011;53413;49.878;8.142;2023-07-31T00:35:20;5.33;;;1.97;;
66559;SDS011;53413;49.878;8.142;2023-07-31T00:37:45;6.05;;;1.70;;
66559;SDS011;53413;49.878;8.142;2023-07-31T00:40:11;5.93;;;1.70;;
66559;SDS011;53413;49.878;8.142;2023-07-31T00:42:36;5.17;;;1.70;;
66559;SDS011;53413;49.878;8.142;2023-07-31T00:45:01;6.40;;;1.70;;
66559;SDS011;53413;49.878;8.142;2023-07-31T00:47:27;6.47;;;1.93;;
66559;SDS011;53413;49.878;8.142;2023-07-31T00:49:52;6.97;;;1.80;;
66559;SDS011;53413;49.878;8.142;2023-07-31T00:52:18;5.88;;;1.70;;
66559;SDS011;53413;49.878;8.142;2023-07-31T00:54:44;5.18;;;1.70;;
66559;SDS011;53413;49.878;8.142;2023-07-31T00:57:09;7.07;;;2.00;;
66559;SDS011;53413;49.878;8.142;2023-07-31T00:59:35;5.93;;;1.70;;
66559;SDS011;53413;49.878;8.142;2023-07-31T01:02:00;6.13;;;1.67;;
66559;SDS011;53413;49.878;8.142;2023-07-31T01:04:26;6.43;;;1.90;;
66559;SDS011;53413;49.878;8.142;2023-07-31T01:09:46;4.65;;;1.70;;
66559;SDS011;53413;49.878;8.142;2023-07-31T01:12:17;7.65;;;2.00;;
66559;SDS011;53413;49.878;8.142;2023-07-31T01:17:26;7.25;;;1.80;;
66559;SDS011;53413;49.878;8.142;2023-07-31T01:19:51;7.27;;;2.03;;
66559;SDS011;53413;49.878;8.142;2023-07-31T01:27:34;5.90;;;1.70;;
66559;SDS011;53413;49.878;8.142;2023-07-31T01:30:08;5.70;;;1.70;;
66559;SDS011;53413;49.878;8.142;2023-07-31T01:32:40;5.30;;;1.73;;
66559;SDS011;53413;49.878;8.142;2023-07-31T01:35:07;6.68;;;2.00;;
66559;SDS011;53413;49.878;8.142;2023-07-31T01:37:33;8.13;;;2.13;;
66559;SDS011;53413;49.878;8.142;2023-07-31T01:39:58;8.38;;;2.00;;
66559;SDS011;53413;49.878;8.142;2023-07-31T01:42:24;5.80;;;1.85;;
66559;SDS011;53413;49.878;8.142;2023-07-31T01:44:49;7.00;;;1.90;;
66559;SDS011;53413;49.878;8.142;2023-07-31T01:47:14;6.13;;;1.80;;
66559;SDS011;53413;49.878;8.142;2023-07-31T01:49:40;6.00;;;2.00;;
66559;SDS011;53413;49.878;8.142;2023-07-31T01:52:05;7.50;;;2.10;;
66559;SDS011;53413;49.878;8.142;2023-07-31T01:54:31;8.60;;;2.03;;
66559;SDS011;53413;49.878;8.142;2023-07-31T01:56:56;6.03;;;1.80;;
66559;SDS011;53413;49.878;8.142;2023-07-31T01:59:21;6.63;;;2.10;;
66559;SDS011;53413;49.878;8.142;2023-07-31T02:01:47;5.47;;;1.80;;
66559;SDS011;53413;49.878;8.142;2023-07-31T02:04:12;9.20;;;2.43;;
66559;SDS011;53413;49.878;8.142;2023-07-31T02:06:38;8.83;;;2.17;;
66559;SDS011;53413;49.878;8.142;2023-07-31T02:09:03;6.32;;;2.00;;
66559;SDS011;53413;49.878;8.142;2023-07-31T02:11:29;5.83;;;2.07;;
66559;SDS011;53413;49.878;8.142;2023-07-31T02:13:54;5.30;;;1.90;;
66559;SDS011;53413;49.878;8.142;2023-07-31T02:16:19;6.37;;;2.07;;
66559;SDS011;53413;49.878;8.142;2023-07-31T02:18:45;5.45;;;1.88;;
66559;SDS011;53413;49.878;8.142;2023-07-31T02:21:10;5.60;;;1.90;;
66559;SDS011;53413;49.878;8.142;2023-07-31T02:23:36;8.70;;;2.13;;
66559;SDS011;53413;49.878;8.142;2023-07-31T02:26:01;6.90;;;2.00;;
66559;SDS011;53413;49.878;8.142;2023-07-31T02:28:26;5.77;;;2.10;;
66559;SDS011;53413;49.878;8.142;2023-07-31T02:30:52;6.73;;;2.17;;
66559;SDS011;53413;49.878;8.142;2023-07-31T02:33:17;6.47;;;2.00;;
66559;SDS011;53413;49.878;8.142;2023-07-31T02:35:42;6.68;;;1.92;;
66559;SDS011;53413;49.878;8.142;2023-07-31T02:38:08;5.50;;;1.93;;
66559;SDS011;53413;49.878;8.142;2023-07-31T02:40:33;5.90;;;2.00;;
66559;SDS011;53413;49.878;8.142;2023-07-31T02:42:59;8.50;;;2.10;;
66559;SDS011;53413;49.878;8.142;2023-07-31T02:45:24;7.43;;;2.37;;
66559;SDS011;53413;49.878;8.142;2023-07-31T02:47:49;7.07;;;1.93;;
66559;SDS011;53413;49.878;8.142;2023-07-31T02:50:15;5.97;;;1.95;;
66559;SDS011;53413;49.878;8.142;2023-07-31T02:52:40;5.07;;;1.80;;
66559;SDS011;53413;49.878;8.142;2023-07-31T02:55:05;6.90;;;1.83;;
66559;SDS011;53413;49.878;8.142;2023-07-31T02:57:31;7.45;;;2.28;;
66559;SDS011;53413;49.878;8.142;2023-07-31T02:59:56;7.30;;;2.20;;
66559;SDS011;53413;49.878;8.142;2023-07-31T03:02:22;7.77;;;2.10;;
66559;SDS011;53413;49.878;8.142;2023-07-31T03:04:47;9.77;;;2.37;;
66559;SDS011;53413;49.878;8.142;2023-07-31T03:07:12;6.60;;;2.00;;
66559;SDS011;53413;49.878;8.142;2023-07-31T03:09:38;7.20;;;2.10;;
66559;SDS011;53413;49.878;8.142;2023-07-31T03:12:03;6.77;;;2.00;;
66559;SDS011;53413;49.878;8.142;2023-07-31T03:14:29;6.25;;;2.10;;
66559;SDS011;53413;49.878;8.142;2023-07-31T03:16:54;6.57;;;2.10;;
66559;SDS011;53413;49.878;8.142;2023-07-31T03:19:20;8.03;;;2.13;;
66559;SDS011;53413;49.878;8.142;2023-07-31T03:21:45;7.97;;;2.40;;
66559;SDS011;53413;49.878;8.142;2023-07-31T03:24:10;7.75;;;2.20;;
66559;SDS011;53413;49.878;8.142;2023-07-31T03:26:37;6.82;;;2.20;;
66559;SDS011;53413;49.878;8.142;2023-07-31T03:29:03;7.80;;;2.35;;
66559;SDS011;53413;49.878;8.142;2023-07-31T03:31:28;7.20;;;2.33;;
66559;SDS011;53413;49.878;8.142;2023-07-31T03:33:53;6.53;;;2.20;;
66559;SDS011;53413;49.878;8.142;2023-07-31T03:36:19;6.00;;;2.20;;
66559;SDS011;53413;49.878;8.142;2023-07-31T03:38:45;6.87;;;2.10;;
66559;SDS011;53413;49.878;8.142;2023-07-31T03:41:11;8.93;;;2.50;;
66559;SDS011;53413;49.878;8.142;2023-07-31T03:43:36;7.17;;;2.23;;
66559;SDS011;53413;49.878;8.142;2023-07-31T03:46:02;7.50;;;2.30;;
66559;SDS011;53413;49.878;8.142;2023-07-31T03:48:28;6.37;;;2.20;;
66559;SDS011;53413;49.878;8.142;2023-07-31T03:50:53;7.55;;;2.55;;
66559;SDS011;53413;49.878;8.142;2023-07-31T03:53:19;9.13;;;2.73;;
66559;SDS011;53413;49.878;8.142;2023-07-31T03:55:44;8.27;;;2.47;;
66559;SDS011;53413;49.878;8.142;2023-07-31T03:58:10;7.30;;;2.20;;
66559;SDS011;53413;49.878;8.142;2023-07-31T04:00:35;8.65;;;2.38;;
66559;SDS011;53413;49.878;8.142;2023-07-31T04:03:00;6.10;;;2.28;;
66559;SDS011;53413;49.878;8.142;2023-07-31T04:05:26;7.53;;;2.40;;
66559;SDS011;53413;49.878;8.142;2023-07-31T04:07:51;7.33;;;2.30;;
66559;SDS011;53413;49.878;8.142;2023-07-31T04:10:16;7.70;;;2.27;;
66559;SDS011;53413;49.878;8.142;2023-07-31T04:12:42;8.13;;;2.17;;
66559;SDS011;53413;49.878;8.142;2023-07-31T04:15:07;8.53;;;2.23;;
66559;SDS011;53413;49.878;8.142;2023-07-31T04:17:33;7.13;;;2.47;;
66559;SDS011;53413;49.878;8.142;2023-07-31T04:19:58;7.93;;;2.10;;
66559;SDS011;53413;49.878;8.142;2023-07-31T04:22:23;7.73;;;2.40;;
66559;SDS011;53413;49.878;8.142;2023-07-31T04:24:49;8.33;;;2.23;;
66559;SDS011;53413;49.878;8.142;2023-07-31T04:27:14;8.17;;;2.47;;
66559;SDS011;53413;49.878;8.142;2023-07-31T04:29:39;7.30;;;2.20;;
66559;SDS011;53413;49.878;8.142;2023-07-31T04:32:07;7.77;;;2.10;;
66559;SDS011;53413;49.878;8.142;2023-07-31T04:34:33;6.43;;;2.00;;
66559;SDS011;53413;49.878;8.142;2023-07-31T04:36:58;6.43;;;2.00;;
66559;SDS011;53413;49.878;8.142;2023-07-31T04:39:23;7.10;;;2.30;;
66559;SDS011;53413;49.878;8.142;2023-07-31T04:41:48;7.63;;;2.33;;
66559;SDS011;53413;49.878;8.142;2023-07-31T04:44:14;8.73;;;2.20;;
66559;SDS011;53413;49.878;8.142;2023-07-31T04:46:39;7.47;;;2.40;;
66559;SDS011;53413;49.878;8.142;2023-07-31T04:49:04;7.53;;;2.10;;
66559;SDS011;53413;49.878;8.142;2023-07-31T04:51:30;7.43;;;2.30;;
66559;SDS011;53413;49.878;8.142;2023-07-31T04:53:56;6.77;;;2.20;;
66559;SDS011;53413;49.878;8.142;2023-07-31T04:56:21;7.70;;;2.30;;
66559;SDS011;53413;49.878;8.142;2023-07-31T04:58:47;8.17;;;2.07;;
66559;SDS011;53413;49.878;8.142;2023-07-31T05:01:12;7.80;;;2.53;;
66559;SDS011;53413;49.878;8.142;2023-07-31T05:03:37;7.17;;;2.00;;
66559;SDS011;53413;49.878;8.142;2023-07-31T05:06:03;6.50;;;2.23;;
66559;SDS011;53413;49.878;8.142;2023-07-31T05:08:28;7.97;;;2.23;;
66559;SDS011;53413;49.878;8.142;2023-07-31T05:10:53;6.95;;;2.10;;
66559;SDS011;53413;49.878;8.142;2023-07-31T05:13:19;8.17;;;2.53;;
66559;SDS011;53413;49.878;8.142;2023-07-31T05:15:45;6.97;;;2.17;;
66559;SDS011;53413;49.878;8.142;2023-07-31T05:18:10;6.75;;;2.10;;
66559;SDS011;53413;49.878;8.142;2023-07-31T05:20:35;5.80;;;2.15;;
66559;SDS011;53413;49.878;8.142;2023-07-31T05:23:01;6.87;;;2.20;;
66559;SDS011;53413;49.878;8.142;2023-07-31T05:25:26;6.13;;;2.10;;
66559;SDS011;53413;49.878;8.142;2023-07-31T05:27:51;6.00;;;1.90;;
66559;SDS011;53413;49.878;8.142;2023-07-31T05:30:17;6.10;;;1.93;;
66559;SDS011;53413;49.878;8.142;2023-07-31T05:32:42;6.43;;;2.13;;
66559;SDS011;53413;49.878;8.142;2023-07-31T05:35:08;6.38;;;2.17;;
66559;SDS011;53413;49.878;8.142;2023-07-31T05:37:34;6.33;;;2.10;;
66559;SDS011;53413;49.878;8.142;2023-07-31T05:39:59;7.20;;;2.20;;
66559;SDS011;53413;49.878;8.142;2023-07-31T05:42:24;7.40;;;2.05;;
66559;SDS011;53413;49.878;8.142;2023-07-31T05:44:50;7.27;;;2.10;;
66559;SDS011;53413;49.878;8.142;2023-07-31T05:47:15;8.00;;;2.00;;
66559;SDS011;53413;49.878;8.142;2023-07-31T05:49:40;8.57;;;2.20;;
66559;SDS011;53413;49.878;8.142;2023-07-31T05:52:06;7.50;;;2.07;;
66559;SDS011;53413;49.878;8.142;2023-07-31T05:54:32;6.00;;;1.80;;
66559;SDS011;53413;49.878;8.142;2023-07-31T05:56:57;7.10;;;2.00;;
66559;SDS011;53413;49.878;8.142;2023-07-31T05:59:23;5.73;;;1.80;;
66559;SDS011;53413;49.878;8.142;2023-07-31T06:01:48;6.10;;;1.90;;
66559;SDS011;53413;49.878;8.142;2023-07-31T06:04:14;8.63;;;2.13;;
66559;SDS011;53413;49.878;8.142;2023-07-31T06:06:39;6.07;;;2.23;;
66559;SDS011;53413;49.878;8.142;2023-07-31T06:09:04;6.83;;;2.17;;
66559;SDS011;53413;49.878;8.142;2023-07-31T06:11:30;6.28;;;2.03;;
66559;SDS011;53413;49.878;8.142;2023-07-31T06:13:55;5.82;;;2.42;;
66559;SDS011;53413;49.878;8.142;2023-07-31T06:16:21;5.67;;;2.10;;
66559;SDS011;53413;49.878;8.142;2023-07-31T06:18:46;7.57;;;2.20;;
66559;SDS011;53413;49.878;8.142;2023-07-31T06:21:12;6.47;;;2.05;;
66559;SDS011;53413;49.878;8.142;2023-07-31T06:23:38;7.20;;;2.23;;
66559;SDS011;53413;49.878;8.142;2023-07-31T06:26:03;7.83;;;2.23;;
66559;SDS011;53413;49.878;8.142;2023-07-31T06:28:29;5.55;;;1.70;;
66559;SDS011;53413;49.878;8.142;2023-07-31T06:30:55;5.85;;;1.90;;
66559;SDS011;53413;49.878;8.142;2023-07-31T06:33:20;5.32;;;2.25;;
66559;SDS011;53413;49.878;8.142;2023-07-31T06:35:46;6.00;;;2.20;;
66559;SDS011;53413;49.878;8.142;2023-07-31T06:38:11;6.73;;;2.23;;
66559;SDS011;53413;49.878;8.142;2023-07-31T06:40:36;7.67;;;2.60;;
66559;SDS011;53413;49.878;8.142;2023-07-31T06:43:02;5.85;;;2.58;;
66559;SDS011;53413;49.878;8.142;2023-07-31T06:45:33;7.30;;;2.22;;
66559;SDS011;53413;49.878;8.142;2023-07-31T06:47:59;6.80;;;2.58;;
66559;SDS011;53413;49.878;8.142;2023-07-31T06:50:26;6.75;;;2.28;;
66559;SDS011;53413;49.878;8.142;2023-07-31T06:52:52;5.82;;;2.30;;
66559;SDS011;53413;49.878;8.142;2023-07-31T06:55:20;6.50;;;2.13;;
66559;SDS011;53413;49.878;8.142;2023-07-31T06:57:50;5.70;;;2.72;;
66559;SDS011;53413;49.878;8.142;2023-07-31T07:00:17;6.50;;;2.75;;
66559;SDS011;53413;49.878;8.142;2023-07-31T07:02:43;5.78;;;2.15;;
66559;SDS011;53413;49.878;8.142;2023-07-31T07:05:09;5.73;;;2.43;;
66559;SDS011;53413;49.878;8.142;2023-07-31T07:07:34;6.72;;;2.88;;
66559;SDS011;53413;49.878;8.142;2023-07-31T07:10:00;5.97;;;2.47;;
66559;SDS011;53413;49.878;8.142;2023-07-31T07:12:27;7.37;;;2.20;;
66559;SDS011;53413;49.878;8.142;2023-07-31T07:14:54;6.45;;;2.28;;
66559;SDS011;53413;49.878;8.142;2023-07-31T07:17:19;6.60;;;2.60;;
66559;SDS011;53413;49.878;8.142;2023-07-31T07:19:45;6.37;;;2.70;;
66559;SDS011;53413;49.878;8.142;2023-07-31T07:22:10;5.97;;;2.80;;
66559;SDS011;53413;49.878;8.142;2023-07-31T07:24:36;6.07;;;2.38;;
66559;SDS011;53413;49.878;8.142;2023-07-31T07:27:01;6.17;;;2.30;;
66559;SDS011;53413;49.878;8.142;2023-07-31T07:29:27;5.73;;;2.27;;
66559;SDS011;53413;49.878;8.142;2023-07-31T07:31:52;5.50;;;2.40;;
66559;SDS011;53413;49.878;8.142;2023-07-31T07:34:18;7.63;;;2.30;;
66559;SDS011;53413;49.878;8.142;2023-07-31T07:36:43;5.22;;;1.98;;
66559;SDS011;53413;49.878;8.142;2023-07-31T07:39:10;5.82;;;2.20;;
66559;SDS011;53413;49.878;8.142;2023-07-31T07:41:36;6.30;;;2.20;;
66559;SDS011;53413;49.878;8.142;2023-07-31T07:44:01;7.70;;;2.20;;
66559;SDS011;53413;49.878;8.142;2023-07-31T07:46:27;6.00;;;2.10;;
66559;SDS011;53413;49.878;8.142;2023-07-31T07:48:52;8.57;;;2.20;;
66559;SDS011;53413;49.878;8.142;2023-07-31T07:51:17;8.27;;;2.33;;
66559;SDS011;53413;49.878;8.142;2023-07-31T07:53:43;6.95;;;1.90;;
66559;SDS011;53413;49.878;8.142;2023-07-31T07:56:08;6.57;;;2.20;;
66559;SDS011;53413;49.878;8.142;2023-07-31T07:58:33;5.77;;;2.10;;
66559;SDS011;53413;49.878;8.142;2023-07-31T08:00:59;4.93;;;2.00;;
66559;SDS011;53413;49.878;8.142;2023-07-31T08:03:24;4.97;;;2.10;;
66559;SDS011;53413;49.878;8.142;2023-07-31T08:05:49;6.43;;;2.07;;
66559;SDS011;53413;49.878;8.142;2023-07-31T08:08:15;5.17;;;2.03;;
66559;SDS011;53413;49.878;8.142;2023-07-31T08:10:41;6.43;;;1.90;;
66559;SDS011;53413;49.878;8.142;2023-07-31T08:13:07;5.78;;;2.00;;
66559;SDS011;53413;49.878;8.142;2023-07-31T08:15:32;6.23;;;1.87;;
66559;SDS011;53413;49.878;8.142;2023-07-31T08:17:58;6.37;;;2.00;;
66559;SDS011;53413;49.878;8.142;2023-07-31T08:20:23;5.83;;;1.97;;
66559;SDS011;53413;49.878;8.142;2023-07-31T08:22:48;7.03;;;2.10;;
66559;SDS011;53413;49.878;8.142;2023-07-31T08:25:14;7.33;;;2.10;;
66559;SDS011;53413;49.878;8.142;2023-07-31T08:27:42;6.28;;;2.20;;
66559;SDS011;53413;49.878;8.142;2023-07-31T08:30:08;5.33;;;1.90;;
66559;SDS011;53413;49.878;8.142;2023-07-31T08:32:34;6.22;;;1.92;;
66559;SDS011;53413;49.878;8.142;2023-07-31T08:34:59;6.80;;;1.90;;
66559;SDS011;53413;49.878;8.142;2023-07-31T08:37:25;5.67;;;1.80;;
66559;SDS011;53413;49.878;8.142;2023-07-31T08:39:50;7.23;;;2.00;;
66559;SDS011;53413;49.878;8.142;2023-07-31T08:42:16;6.45;;;2.25;;
66559;SDS011;53413;49.878;8.142;2023-07-31T08:44:41;6.23;;;1.90;;
66559;SDS011;53413;49.878;8.142;2023-07-31T08:47:08;5.97;;;1.90;;
66559;SDS011;53413;49.878;8.142;2023-07-31T08:49:35;6.07;;;2.03;;
66559;SDS011;53413;49.878;8.142;2023-07-31T08:52:03;7.13;;;2.25;;
66559;SDS011;53413;49.878;8.142;2023-07-31T08:54:29;5.32;;;2.17;;
66559;SDS011;53413;49.878;8.142;2023-07-31T08:56:57;5.80;;;2.10;;
66559;SDS011;53413;49.878;8.142;2023-07-31T08:59:24;6.38;;;2.03;;
66559;SDS011;53413;49.878;8.142;2023-07-31T09:01:54;5.55;;;2.10;;
66559;SDS011;53413;49.878;8.142;2023-07-31T09:04:22;6.97;;;2.23;;
66559;SDS011;53413;49.878;8.142;2023-07-31T09:06:49;5.68;;;1.90;;
66559;SDS011;53413;49.878;8.142;2023-07-31T09:09:17;6.93;;;2.22;;
66559;SDS011;53413;49.878;8.142;2023-07-31T09:11:42;8.90;;;2.20;;
66559;SDS011;53413;49.878;8.142;2023-07-31T09:14:08;6.33;;;2.13;;
66559;SDS011;53413;49.878;8.142;2023-07-31T09:16:35;6.97;;;2.30;;
66559;SDS011;53413;49.878;8.142;2023-07-31T09:19:00;5.90;;;2.00;;
66559;SDS011;53413;49.878;8.142;2023-07-31T09:21:30;5.22;;;1.83;;
66559;SDS011;53413;49.878;8.142;2023-07-31T09:23:55;7.23;;;2.30;;
66559;SDS011;53413;49.878;8.142;2023-07-31T09:26:30;7.25;;;2.10;;
66559;SDS011;53413;49.878;8.142;2023-07-31T09:29:00;6.53;;;1.87;;
66559;SDS011;53413;49.878;8.142;2023-07-31T09:31:32;7.00;;;2.20;;
66559;SDS011;53413;49.878;8.142;2023-07-31T09:34:07;5.60;;;2.17;;
66559;SDS011;53413;49.878;8.142;2023-07-31T09:36:37;5.27;;;2.00;;
66559;SDS011;53413;49.878;8.142;2023-07-31T09:39:05;5.57;;;2.00;;
66559;SDS011;53413;49.878;8.142;2023-07-31T09:41:41;7.25;;;2.33;;
66559;SDS011;53413;49.878;8.142;2023-07-31T09:44:08;5.78;;;2.40;;
66559;SDS011;53413;49.878;8.142;2023-07-31T09:46:36;6.27;;;2.37;;
66559;SDS011;53413;49.878;8.142;2023-07-31T09:49:06;7.15;;;2.63;;
66559;SDS011;53413;49.878;8.142;2023-07-31T09:51:34;7.13;;;2.10;;
66559;SDS011;53413;49.878;8.142;2023-07-31T09:54:03;7.30;;;2.25;;
66559;SDS011;53413;49.878;8.142;2023-07-31T09:56:47;5.40;;;2.00;;
66559;SDS011;53413;49.878;8.142;2023-07-31T09:59:14;6.40;;;2.40;;
66559;SDS011;53413;49.878;8.142;2023-07-31T10:01:41;6.28;;;2.30;;
66559;SDS011;53413;49.878;8.142;2023-07-31T10:04:08;5.97;;;2.20;;
66559;SDS011;53413;49.878;8.142;2023-07-31T10:06:35;7.57;;;2.60;;
66559;SDS011;53413;49.878;8.142;2023-07-31T10:09:02;9.80;;;2.42;;
66559;SDS011;53413;49.878;8.142;2023-07-31T10:11:28;7.28;;;2.28;;
66559;SDS011;53413;49.878;8.142;2023-07-31T10:13:55;6.75;;;2.30;;
66559;SDS011;53413;49.878;8.142;2023-07-31T10:16:21;7.10;;;2.10;;
66559;SDS011;53413;49.878;8.142;2023-07-31T10:18:47;6.33;;;2.30;;
66559;SDS011;53413;49.878;8.142;2023-07-31T10:21:14;7.30;;;2.50;;
66559;SDS011;53413;49.878;8.142;2023-07-31T10:23:40;6.85;;;2.30;;
66559;SDS011;53413;49.878;8.142;2023-07-31T10:26:08;8.50;;;2.50;;
66559;SDS011;53413;49.878;8.142;2023-07-31T10:28:36;5.90;;;2.15;;
66559;SDS011;53413;49.878;8.142;2023-07-31T10:31:02;6.40;;;2.28;;
66559;SDS011;53413;49.878;8.142;2023-07-31T10:33:28;6.75;;;2.10;;
66559;SDS011;53413;49.878;8.142;2023-07-31T10:38:58;6.35;;;2.17;;
66559;SDS011;53413;49.878;8.142;2023-07-31T10:41:30;5.87;;;2.30;;
66559;SDS011;53413;49.878;8.142;2023-07-31T10:44:02;7.47;;;2.45;;
66559;SDS011;53413;49.878;8.142;2023-07-31T10:46:27;6.38;;;2.40;;
66559;SDS011;53413;49.878;8.142;2023-07-31T10:48:58;6.85;;;2.20;;
66559;SDS011;53413;49.878;8.142;2023-07-31T10:51:24;5.85;;;2.05;;
66559;SDS011;53413;49.878;8.142;2023-07-31T10:54:11;4.73;;;2.10;;
66559;SDS011;53413;49.878;8.142;2023-07-31T10:56:37;6.40;;;2.28;;
66559;SDS011;53413;49.878;8.142;2023-07-31T10:59:04;6.45;;;2.45;;
66559;SDS011;53413;49.878;8.142;2023-07-31T11:01:51;6.37;;;2.30;;
66559;SDS011;53413;49.878;8.142;2023-07-31T11:04:22;6.40;;;2.35;;
66559;SDS011;53413;49.878;8.142;2023-07-31T11:06:58;5.68;;;2.40;;
66559;SDS011;53413;49.878;8.142;2023-07-31T11:09:27;5.90;;;2.55;;
66559;SDS011;53413;49.878;8.142;2023-07-31T11:11:55;6.60;;;2.78;;
66559;SDS011;53413;49.878;8.142;2023-07-31T11:14:20;6.53;;;2.58;;
66559;SDS011;53413;49.878;8.142;2023-07-31T11:16:46;6.00;;;2.40;;
66559;SDS011;53413;49.878;8.142;2023-07-31T11:19:15;7.88;;;2.47;;
66559;SDS011;53413;49.878;8.142;2023-07-31T11:21:46;8.38;;;2.72;;
66559;SDS011;53413;49.878;8.142;2023-07-31T11:24:13;7.57;;;2.17;;
66559;SDS011;53413;49.878;8.142;2023-07-31T11:26:38;7.55;;;2.70;;
66559;SDS011;53413;49.878;8.142;2023-07-31T11:29:10;6.23;;;2.30;;
66559;SDS011;53413;49.878;8.142;2023-07-31T11:31:41;6.30;;;2.40;;
66559;SDS011;53413;49.878;8.142;2023-07-31T11:34:07;6.40;;;2.60;;
66559;SDS011;53413;49.878;8.142;2023-07-31T11:36:33;5.65;;;2.45;;
66559;SDS011;53413;49.878;8.142;2023-07-31T11:39:08;5.97;;;2.40;;
66559;SDS011;53413;49.878;8.142;2023-07-31T11:41:34;6.97;;;2.38;;
66559;SDS011;53413;49.878;8.142;2023-07-31T11:44:00;6.82;;;2.38;;
66559;SDS011;53413;49.878;8.142;2023-07-31T11:46:26;7.40;;;2.60;;
66559;SDS011;53413;49.878;8.142;2023-07-31T11:48:52;6.53;;;2.40;;
66559;SDS011;53413;49.878;8.142;2023-07-31T11:51:17;5.93;;;2.30;;
66559;SDS011;53413;49.878;8.142;2023-07-31T11:54:04;6.45;;;2.40;;
66559;SDS011;53413;49.878;8.142;2023-07-31T11:56:30;5.25;;;2.40;;
66559;SDS011;53413;49.878;8.142;2023-07-31T11:58:57;10.18;;;2.30;;
66559;SDS011;53413;49.878;8.142;2023-07-31T12:01:24;5.80;;;2.33;;
66559;SDS011;53413;49.878;8.142;2023-07-31T12:03:52;8.43;;;2.65;;
66559;SDS011;53413;49.878;8.142;2023-07-31T12:06:18;7.55;;;2.50;;
66559;SDS011;53413;49.878;8.142;2023-07-31T12:08:46;6.80;;;2.40;;
66559;SDS011;53413;49.878;8.142;2023-07-31T12:11:11;6.13;;;2.55;;
66559;SDS011;53413;49.878;8.142;2023-07-31T12:13:38;6.45;;;2.50;;
66559;SDS011;53413;49.878;8.142;2023-07-31T12:16:04;5.70;;;2.40;;
66559;SDS011;53413;49.878;8.142;2023-07-31T12:18:31;5.93;;;2.57;;
66559;SDS011;53413;49.878;8.142;2023-07-31T12:21:00;6.38;;;2.50;;
66559;SDS011;53413;49.878;8.142;2023-07-31T12:26:12;7.95;;;2.20;;
66559;SDS011;53413;49.878;8.142;2023-07-31T12:28:43;7.33;;;2.20;;
66559;SDS011;53413;49.878;8.142;2023-07-31T12:31:13;6.93;;;2.20;;
66559;SDS011;53413;49.878;8.142;2023-07-31T12:33:40;7.63;;;2.50;;
66559;SDS011;53413;49.878;8.142;2023-07-31T12:36:08;7.70;;;2.60;;
66559;SDS011;53413;49.878;8.142;2023-07-31T12:38:35;6.88;;;2.33;;
66559;SDS011;53413;49.878;8.142;2023-07-31T12:41:00;6.17;;;2.30;;
66559;SDS011;53413;49.878;8.142;2023-07-31T12:43:26;8.03;;;2.40;;
66559;SDS011;53413;49.878;8.142;2023-07-31T12:45:51;6.50;;;2.23;;
66559;SDS011;53413;49.878;8.142;2023-07-31T12:48:18;6.97;;;2.28;;
66559;SDS011;53413;49.878;8.142;2023-07-31T12:50:44;4.85;;;2.22;;
66559;SDS011;53413;49.878;8.142;2023-07-31T12:53:09;6.13;;;2.63;;
66559;SDS011;53413;49.878;8.142;2023-07-31T12:55:34;6.17;;;2.30;;
66559;SDS011;53413;49.878;8.142;2023-07-31T12:58:01;6.15;;;2.20;;
66559;SDS011;53413;49.878;8.142;2023-07-31T13:00:27;6.35;;;2.40;;
66559;SDS011;53413;49.878;8.142;2023-07-31T13:02:53;6.07;;;2.20;;
66559;SDS011;53413;49.878;8.142;2023-07-31T13:05:18;7.28;;;2.20;;
66559;SDS011;53413;49.878;8.142;2023-07-31T13:07:45;6.38;;;2.20;;
66559;SDS011;53413;49.878;8.142;2023-07-31T13:10:11;5.90;;;2.10;;
66559;SDS011;53413;49.878;8.142;2023-07-31T13:12:36;4.43;;;2.00;;
66559;SDS011;53413;49.878;8.142;2023-07-31T13:15:02;6.07;;;2.43;;
66559;SDS011;53413;49.878;8.142;2023-07-31T13:17:29;5.88;;;2.03;;
66559;SDS011;53413;49.878;8.142;2023-07-31T13:19:54;6.60;;;2.50;;
66559;SDS011;53413;49.878;8.142;2023-07-31T13:22:19;5.43;;;2.30;;
66559;SDS011;53413;49.878;8.142;2023-07-31T13:24:45;5.90;;;2.50;;
66559;SDS011;53413;49.878;8.142;2023-07-31T13:27:10;6.30;;;2.17;;
66559;SDS011;53413;49.878;8.142;2023-07-31T13:29:35;6.53;;;2.20;;
66559;SDS011;53413;49.878;8.142;2023-07-31T13:32:01;6.13;;;2.27;;
66559;SDS011;53413;49.878;8.142;2023-07-31T13:34:26;7.60;;;2.40;;
66559;SDS011;53413;49.878;8.142;2023-07-31T13:36:53;5.50;;;2.17;;
66559;SDS011;53413;49.878;8.142;2023-07-31T13:39:19;6.33;;;2.20;;
66559;SDS011;53413;49.878;8.142;2023-07-31T13:41:44;5.15;;;2.15;;
66559;SDS011;53413;49.878;8.142;2023-07-31T13:44:10;6.00;;;2.00;;
66559;SDS011;53413;49.878;8.142;2023-07-31T13:46:35;6.83;;;2.30;;
66559;SDS011;53413;49.878;8.142;2023-07-31T13:49:00;7.30;;;2.20;;
66559;SDS011;53413;49.878;8.142;2023-07-31T13:51:26;5.63;;;2.27;;
66559;SDS011;53413;49.878;8.142;2023-07-31T13:53:52;6.82;;;2.30;;
66559;SDS011;53413;49.878;8.142;2023-07-31T13:56:18;5.97;;;2.10;;
66559;SDS011;53413;49.878;8.142;2023-07-31T13:58:43;10.38;;;2.40;;
66559;SDS011;53413;49.878;8.142;2023-07-31T14:01:09;7.20;;;2.33;;
66559;SDS011;53413;49.878;8.142;2023-07-31T14:03:34;6.60;;;2.30;;
66559;SDS011;53413;49.878;8.142;2023-07-31T14:05:59;7.43;;;2.27;;
66559;SDS011;53413;49.878;8.142;2023-07-31T14:08:25;7.60;;;2.23;;
66559;SDS011;53413;49.878;8.142;2023-07-31T14:10:50;6.75;;;2.35;;
66559;SDS011;53413;49.878;8.142;2023-07-31T14:13:15;5.57;;;2.17;;
66559;SDS011;53413;49.878;8.142;2023-07-31T14:15:44;4.97;;;1.80;;
66559;SDS011;53413;49.878;8.142;2023-07-31T14:18:09;5.15;;;1.70;;
66559;SDS011;53413;49.878;8.142;2023-07-31T14:20:34;4.82;;;1.83;;
66559;SDS011;53413;49.878;8.142;2023-07-31T14:23:00;4.57;;;1.60;;
66559;SDS011;53413;49.878;8.142;2023-07-31T14:25:27;3.75;;;1.45;;
66559;SDS011;53413;49.878;8.142;2023-07-31T14:27:52;4.30;;;1.50;;
66559;SDS011;53413;49.878;8.142;2023-07-31T14:30:18;5.10;;;1.60;;
66559;SDS011;53413;49.878;8.142;2023-07-31T14:32:43;4.33;;;1.80;;
66559;SDS011;53413;49.878;8.142;2023-07-31T14:35:09;6.07;;;1.70;;
66559;SDS011;53413;49.878;8.142;2023-07-31T14:37:39;4.90;;;1.70;;
66559;SDS011;53413;49.878;8.142;2023-07-31T14:40:08;5.57;;;1.80;;
66559;SDS011;53413;49.878;8.142;2023-07-31T14:42:35;5.43;;;1.90;;
66559;SDS011;53413;49.878;8.142;2023-07-31T14:45:01;5.47;;;1.60;;
66559;SDS011;53413;49.878;8.142;2023-07-31T14:47:27;4.35;;;1.42;;
66559;SDS011;53413;49.878;8.142;2023-07-31T14:49:53;4.27;;;1.40;;
66559;SDS011;53413;49.878;8.142;2023-07-31T14:52:18;4.93;;;1.50;;
66559;SDS011;53413;49.878;8.142;2023-07-31T14:54:44;3.80;;;1.40;;
66559;SDS011;53413;49.878;8.142;2023-07-31T14:57:10;5.65;;;1.73;;
66559;SDS011;53413;49.878;8.142;2023-07-31T14:59:35;4.13;;;1.47;;